createdAt,value
2018-02-13T00:00:39.646Z,19.60
2018-02-13T00:03:07.187Z,19.07
2018-02-13T00:05:35.516Z,16.23
2018-02-13T00:08:03.019Z,16.80
2018-02-13T00:10:32.051Z,16.70
2018-02-13T00:13:01.016Z,15.53
2018-02-13T00:15:28.569Z,16.77
2018-02-13T00:17:56.137Z,22.73
2018-02-13T00:20:24.535Z,13.27
2018-02-13T00:22:52.042Z,16.60
2018-02-13T00:25:20.074Z,18.87
2018-02-13T00:27:47.646Z,11.80
2018-02-13T00:30:15.195Z,19.30
2018-02-13T00:32:42.811Z,21.90
2018-02-13T00:35:11.295Z,16.93
2018-02-13T00:37:40.024Z,15.43
2018-02-13T00:40:07.558Z,11.60
2018-02-13T00:42:35.085Z,17.87
2018-02-13T00:45:02.646Z,13.37
2018-02-13T00:47:30.353Z,13.17
2018-02-13T00:49:58.072Z,15.27
2018-02-13T00:52:25.603Z,14.10
2018-02-13T00:54:53.160Z,15.23
2018-02-13T00:57:20.692Z,11.80
2018-02-13T00:59:48.346Z,13.23
2018-02-13T01:02:16.002Z,13.37
2018-02-13T01:04:43.719Z,14.83
2018-02-13T01:07:11.367Z,15.03
2018-02-13T01:09:38.882Z,14.67
2018-02-13T01:12:06.452Z,12.57
2018-02-13T01:14:34.084Z,14.77
2018-02-13T01:17:02.427Z,17.50
2018-02-13T01:19:30.195Z,13.70
2018-02-13T01:21:57.813Z,13.20
2018-02-13T01:24:26.465Z,12.50
2018-02-13T01:26:54.088Z,14.13
2018-02-13T01:29:21.647Z,14.50
2018-02-13T01:31:49.210Z,16.13
2018-02-13T01:34:16.910Z,24.20
2018-02-13T01:36:44.430Z,23.80
2018-02-13T01:39:12.013Z,26.23
2018-02-13T01:41:39.620Z,17.73
2018-02-13T01:44:07.913Z,22.27
2018-02-13T01:46:35.765Z,16.67
2018-02-13T01:49:04.577Z,13.13
2018-02-13T01:51:32.157Z,16.43
2018-02-13T01:53:59.670Z,13.07
2018-02-13T01:56:28.016Z,15.10
2018-02-13T01:58:55.535Z,15.87
2018-02-13T02:01:23.090Z,15.37
2018-02-13T02:03:50.594Z,17.60
2018-02-13T02:06:18.122Z,13.97
2018-02-13T02:08:45.775Z,17.27
2018-02-13T02:11:13.312Z,19.10
2018-02-13T02:13:40.955Z,15.40
2018-02-13T02:16:08.514Z,16.00
2018-02-13T02:18:37.138Z,14.53
2018-02-13T02:21:04.810Z,16.73
2018-02-13T02:23:32.523Z,16.03
2018-02-13T02:26:00.310Z,18.00
2018-02-13T02:28:28.817Z,19.07
2018-02-13T02:30:56.378Z,17.27
2018-02-13T02:33:23.926Z,20.53
2018-02-13T02:35:51.434Z,19.87
2018-02-13T02:38:18.981Z,16.10
2018-02-13T02:40:46.548Z,15.67
2018-02-13T02:43:14.062Z,17.87
2018-02-13T02:45:41.712Z,18.60
2018-02-13T02:48:09.424Z,18.07
2018-02-13T02:50:36.941Z,14.80
2018-02-13T02:53:04.509Z,17.63
2018-02-13T02:55:32.198Z,13.63
2018-02-13T02:57:59.724Z,18.87
2018-02-13T03:00:27.352Z,15.77
2018-02-13T03:02:54.990Z,19.17
2018-02-13T03:05:22.816Z,18.10
2018-02-13T03:07:50.472Z,16.23
2018-02-13T03:10:18.865Z,18.13
2018-02-13T03:12:46.583Z,22.00
2018-02-13T03:15:14.141Z,21.10
2018-02-13T03:17:41.769Z,20.90
2018-02-13T03:20:09.279Z,22.00
2018-02-13T03:22:36.782Z,19.13
2018-02-13T03:25:04.313Z,19.27
2018-02-13T03:27:31.819Z,21.40
2018-02-13T03:29:59.369Z,22.33
2018-02-13T03:32:26.929Z,21.37
2018-02-13T03:34:54.477Z,21.03
2018-02-13T03:37:21.995Z,26.53
2018-02-13T03:39:50.313Z,23.70
2018-02-13T03:42:17.840Z,22.43
2018-02-13T03:44:46.450Z,30.27
2018-02-13T03:47:14.279Z,53.70
2018-02-13T03:49:42.750Z,33.07
2018-02-13T03:52:11.029Z,22.17
2018-02-13T03:54:39.340Z,22.73
2018-02-13T03:57:06.884Z,22.07
2018-02-13T03:59:35.491Z,23.03
2018-02-13T04:02:03.009Z,27.03
2018-02-13T04:04:31.264Z,27.13
2018-02-13T04:06:58.777Z,26.93
2018-02-13T04:09:26.337Z,28.40
2018-02-13T04:11:53.880Z,25.93
2018-02-13T04:14:22.284Z,27.00
2018-02-13T04:16:49.948Z,28.60
2018-02-13T04:19:17.498Z,28.77
2018-02-13T04:21:45.445Z,23.83
2018-02-13T04:24:13.138Z,31.90
2018-02-13T04:26:40.657Z,31.47
2018-02-13T04:29:08.954Z,28.37
2018-02-13T04:31:37.574Z,28.50
2018-02-13T04:34:05.115Z,25.70
2018-02-13T04:36:32.610Z,27.73
2018-02-13T04:39:00.169Z,27.33
2018-02-13T04:41:27.869Z,26.67
2018-02-13T04:43:56.208Z,28.63
2018-02-13T04:46:23.785Z,31.80
2018-02-13T04:48:51.397Z,30.20
2018-02-13T04:51:18.962Z,32.10
2018-02-13T04:53:46.519Z,28.57
2018-02-13T04:56:14.064Z,33.53
2018-02-13T04:58:41.949Z,38.27
2018-02-13T05:01:09.480Z,31.57
2018-02-13T05:03:37.185Z,31.43
2018-02-13T05:06:04.762Z,32.10
2018-02-13T05:08:32.428Z,31.90
2018-02-13T05:10:59.983Z,74.63
2018-02-13T05:13:27.513Z,34.53
2018-02-13T05:15:55.076Z,35.87
2018-02-13T05:18:22.581Z,38.27
2018-02-13T05:20:50.266Z,37.00
2018-02-13T05:23:17.824Z,35.77
2018-02-13T05:25:47.263Z,38.90
2018-02-13T05:28:14.788Z,42.43
2018-02-13T05:30:43.099Z,38.43
2018-02-13T05:33:11.439Z,35.83
2018-02-13T05:35:38.986Z,36.17
2018-02-13T05:38:06.504Z,38.47
2018-02-13T05:40:34.055Z,40.30
2018-02-13T05:43:01.576Z,41.33
2018-02-13T05:45:30.011Z,36.27
2018-02-13T05:47:57.540Z,38.57
2018-02-13T05:50:25.295Z,41.00
2018-02-13T05:52:52.994Z,42.50
2018-02-13T05:55:20.545Z,40.20
2018-02-13T05:57:48.089Z,44.20
2018-02-13T06:00:15.707Z,40.90
2018-02-13T06:02:43.230Z,44.60
2018-02-13T06:05:10.759Z,43.17
2018-02-13T06:07:38.325Z,39.50
2018-02-13T06:10:05.908Z,39.63
2018-02-13T06:12:33.414Z,40.33
2018-02-13T06:15:01.026Z,40.13
2018-02-13T06:17:28.591Z,38.67
2018-02-13T06:19:56.370Z,41.73
2018-02-13T06:22:23.991Z,39.83
2018-02-13T06:24:51.519Z,43.17
2018-02-13T06:27:19.816Z,50.30
2018-02-13T06:29:47.939Z,40.97
2018-02-13T06:32:15.511Z,39.03
2018-02-13T06:34:43.549Z,39.13
2018-02-13T06:37:11.071Z,37.27
2018-02-13T06:39:38.650Z,36.90
2018-02-13T06:42:06.516Z,39.97
2018-02-13T06:44:34.060Z,44.00
2018-02-13T06:47:02.386Z,37.97
2018-02-13T06:49:29.903Z,42.23
2018-02-13T06:51:58.101Z,35.97
2018-02-13T06:54:25.591Z,33.33
2018-02-13T06:56:53.219Z,29.43
2018-02-13T06:59:20.731Z,33.67
2018-02-13T07:01:48.291Z,34.03
2018-02-13T07:04:15.849Z,32.27
2018-02-13T07:06:43.477Z,32.87
2018-02-13T07:09:11.121Z,33.30
2018-02-13T07:11:38.731Z,25.43
2018-02-13T07:14:06.290Z,24.77
2018-02-13T07:16:33.845Z,25.20
2018-02-13T07:19:01.360Z,27.30
2018-02-13T07:21:29.123Z,31.63
2018-02-13T07:23:56.712Z,29.43
2018-02-13T07:26:24.242Z,31.70
2018-02-13T07:28:51.801Z,31.23
2018-02-13T07:31:20.254Z,33.67
2018-02-13T07:33:47.824Z,28.07
2018-02-13T07:36:15.551Z,28.33
2018-02-13T07:38:43.071Z,31.97
2018-02-13T07:41:10.631Z,28.50
2018-02-13T07:43:38.152Z,26.23
2018-02-13T07:46:07.745Z,28.67
2018-02-13T07:48:36.064Z,28.00
2018-02-13T07:51:03.796Z,24.77
2018-02-13T07:53:32.101Z,27.07
2018-02-13T07:55:59.666Z,27.73
2018-02-13T07:58:27.239Z,30.70
2018-02-13T08:00:54.952Z,27.10
2018-02-13T08:03:22.548Z,29.60
2018-02-13T08:05:50.902Z,26.67
2018-02-13T08:08:19.220Z,34.43
2018-02-13T08:10:46.741Z,29.07
2018-02-13T08:13:14.367Z,27.30
2018-02-13T08:15:41.925Z,28.67
2018-02-13T08:18:10.787Z,25.77
2018-02-13T08:20:38.344Z,27.77
2018-02-13T08:23:05.867Z,26.30
2018-02-13T08:25:33.372Z,36.13
2018-02-13T08:28:00.946Z,26.67
2018-02-13T08:30:28.987Z,25.37
2018-02-13T08:32:56.653Z,30.67
2018-02-13T08:35:24.418Z,25.43
2018-02-13T08:37:52.137Z,32.03
2018-02-13T08:40:19.669Z,27.23
2018-02-13T08:42:47.298Z,29.53
2018-02-13T08:45:14.802Z,28.20
2018-02-13T08:47:42.306Z,23.87
2018-02-13T08:50:09.874Z,27.73
2018-02-13T08:52:37.399Z,29.17
2018-02-13T08:55:05.220Z,28.53
2018-02-13T08:57:32.734Z,25.67
2018-02-13T09:00:02.569Z,25.53
2018-02-13T09:02:30.097Z,26.37
2018-02-13T09:04:58.419Z,27.13
2018-02-13T09:07:25.967Z,27.50
2018-02-13T09:09:53.502Z,30.40
2018-02-13T09:12:21.308Z,25.90
2018-02-13T09:14:49.475Z,27.63
2018-02-13T09:17:17.003Z,26.47
2018-02-13T09:19:45.557Z,27.77
2018-02-13T09:22:13.109Z,27.07
2018-02-13T09:24:40.640Z,27.53
2018-02-13T09:27:08.200Z,27.30
2018-02-13T09:29:36.448Z,24.73
2018-02-13T09:32:03.979Z,26.37
2018-02-13T09:34:33.038Z,26.87
2018-02-13T09:37:00.563Z,29.53
2018-02-13T09:39:28.327Z,25.37
2018-02-13T09:41:56.059Z,34.00
2018-02-13T09:44:24.367Z,25.47
2018-02-13T09:46:51.918Z,29.00
2018-02-13T09:49:19.689Z,27.30
2018-02-13T09:51:47.232Z,30.03
2018-02-13T09:54:15.593Z,29.03
2018-02-13T09:56:43.115Z,25.17
2018-02-13T09:59:10.815Z,26.67
2018-02-13T10:01:38.327Z,27.13
2018-02-13T10:04:05.904Z,26.17
2018-02-13T10:06:33.403Z,28.27
2018-02-13T10:09:00.924Z,24.97
2018-02-13T10:11:28.444Z,24.67
2018-02-13T10:13:56.735Z,24.10
2018-02-13T10:16:24.256Z,25.20
2018-02-13T10:18:51.913Z,24.97
2018-02-13T10:21:19.494Z,24.07
2018-02-13T10:23:47.203Z,24.53
2018-02-13T10:26:15.615Z,23.53
2018-02-13T10:28:43.158Z,23.83
2018-02-13T10:31:10.896Z,23.27
2018-02-13T10:33:38.630Z,21.00
2018-02-13T10:36:06.988Z,25.03
2018-02-13T10:38:35.423Z,23.73
2018-02-13T10:41:03.173Z,25.47
2018-02-13T10:43:30.730Z,19.97
2018-02-13T10:45:58.501Z,32.63
2018-02-13T10:48:26.030Z,22.30
2018-02-13T10:50:53.601Z,22.03
2018-02-13T10:53:22.059Z,22.37
2018-02-13T10:55:49.602Z,18.40
2018-02-13T10:58:17.659Z,19.13
2018-02-13T11:00:50.936Z,23.80
2018-02-13T11:03:18.580Z,20.77
2018-02-13T11:05:46.120Z,20.20
2018-02-13T11:08:14.426Z,19.73
2018-02-13T11:10:41.962Z,17.20
2018-02-13T11:13:10.964Z,23.27
2018-02-13T11:15:38.828Z,16.27
2018-02-13T11:18:06.642Z,16.43
2018-02-13T11:20:34.226Z,18.37
2018-02-13T11:23:02.035Z,18.20
2018-02-13T11:25:29.827Z,28.53
2018-02-13T11:27:57.354Z,16.57
2018-02-13T11:30:24.901Z,14.70
2018-02-13T11:32:54.193Z,13.50
2018-02-13T11:35:23.275Z,14.83
2018-02-13T11:37:50.779Z,14.17
2018-02-13T11:40:18.379Z,13.53
2018-02-13T11:42:45.891Z,17.37
2018-02-13T11:45:14.256Z,15.10
2018-02-13T11:47:41.873Z,17.87
2018-02-13T11:50:09.405Z,14.87
2018-02-13T11:52:36.940Z,13.77
2018-02-13T11:55:04.501Z,23.20
2018-02-13T11:57:32.074Z,12.63
2018-02-13T11:59:59.658Z,16.33
2018-02-13T12:02:27.209Z,14.50
2018-02-13T12:04:54.933Z,14.00
2018-02-13T12:07:22.632Z,20.63
2018-02-13T12:09:50.198Z,17.47
2018-02-13T12:12:17.830Z,22.97
2018-02-13T12:14:45.527Z,17.17
2018-02-13T12:17:13.092Z,17.33
2018-02-13T12:19:40.650Z,24.70
2018-02-13T12:22:08.288Z,28.57
2018-02-13T12:24:36.148Z,17.27
2018-02-13T12:27:04.941Z,25.13
2018-02-13T12:29:32.485Z,19.90
2018-02-13T12:32:00.310Z,17.43
2018-02-13T12:34:27.906Z,13.17
2018-02-13T12:36:55.644Z,16.47
2018-02-13T12:39:23.270Z,19.00
2018-02-13T12:41:50.930Z,15.60
2018-02-13T12:44:18.974Z,24.23
2018-02-13T12:46:46.826Z,20.90
2018-02-13T12:49:15.227Z,17.47
2018-02-13T12:51:42.945Z,20.53
2018-02-13T12:54:10.503Z,12.70
2018-02-13T12:56:38.039Z,21.53
2018-02-13T12:59:05.786Z,16.43
2018-02-13T13:01:33.334Z,21.03
2018-02-13T13:04:00.845Z,11.63
2018-02-13T13:06:28.372Z,13.57
2018-02-13T13:08:56.106Z,14.80
2018-02-13T13:11:23.655Z,15.37
2018-02-13T13:13:51.933Z,10.83
2018-02-13T13:16:20.201Z,11.27
2018-02-13T13:18:47.796Z,14.33
2018-02-13T13:21:15.299Z,18.37
2018-02-13T13:23:42.855Z,13.23
2018-02-13T13:26:11.021Z,18.00
2018-02-13T13:28:38.553Z,28.30
2018-02-13T13:31:06.138Z,17.73
2018-02-13T13:33:33.771Z,11.87
2018-02-13T13:36:01.310Z,15.43
2018-02-13T13:38:29.913Z,19.70
2018-02-13T13:40:57.426Z,11.43
2018-02-13T13:43:24.943Z,12.03
2018-02-13T13:45:52.589Z,10.43
2018-02-13T13:48:20.340Z,18.30
2018-02-13T13:50:47.966Z,13.97
2018-02-13T13:53:15.492Z,12.07
2018-02-13T13:55:43.087Z,8.87
2018-02-13T13:58:12.132Z,12.90
2018-02-13T14:00:39.938Z,16.63
2018-02-13T14:03:08.374Z,18.90
2018-02-13T14:05:36.246Z,11.53
2018-02-13T14:08:04.524Z,12.70
2018-02-13T14:10:32.928Z,19.77
2018-02-13T14:13:00.639Z,11.83
2018-02-13T14:15:28.215Z,10.20
2018-02-13T14:17:55.742Z,17.17
2018-02-13T14:20:23.297Z,9.03
2018-02-13T14:22:52.391Z,9.50
2018-02-13T14:25:19.945Z,12.00
2018-02-13T14:27:47.557Z,15.97
2018-02-13T14:30:15.092Z,11.13
2018-02-13T14:32:43.247Z,12.80
2018-02-13T14:35:10.822Z,16.30
2018-02-13T14:37:39.146Z,10.97
2018-02-13T14:40:06.675Z,14.17
2018-02-13T14:42:34.242Z,15.53
2018-02-13T14:45:02.395Z,16.90
2018-02-13T14:47:30.707Z,26.63
2018-02-13T14:49:58.264Z,12.83
2018-02-13T14:52:25.912Z,9.73
2018-02-13T14:54:53.439Z,14.47
2018-02-13T14:57:21.147Z,13.83
2018-02-13T14:59:49.377Z,19.47
2018-02-13T15:02:17.056Z,16.03
2018-02-13T15:04:45.376Z,11.83
2018-02-13T15:07:12.938Z,15.77
2018-02-13T15:09:40.490Z,17.53
2018-02-13T15:12:08.013Z,16.00
2018-02-13T15:14:37.469Z,13.33
2018-02-13T15:17:21.190Z,16.67
2018-02-13T15:19:53.039Z,13.30
2018-02-13T15:22:21.191Z,12.70
2018-02-13T15:24:49.023Z,31.47
2018-02-13T15:27:16.554Z,25.23
2018-02-13T15:29:44.708Z,23.33
2018-02-13T15:32:12.632Z,25.20
2018-02-13T15:34:40.606Z,15.50
2018-02-13T15:37:08.322Z,10.30
2018-02-13T15:39:35.875Z,20.97
2018-02-13T15:42:03.502Z,11.43
2018-02-13T15:44:31.047Z,13.57
2018-02-13T15:47:13.362Z,16.20
2018-02-13T15:49:40.960Z,12.97
2018-02-13T15:52:08.469Z,13.80
2018-02-13T15:54:36.029Z,24.53
2018-02-13T15:57:03.956Z,15.83
2018-02-13T15:59:31.479Z,18.03
2018-02-13T16:01:59.005Z,11.43
2018-02-13T16:04:26.633Z,17.90
2018-02-13T16:06:54.153Z,13.47
2018-02-13T16:09:21.938Z,9.77
2018-02-13T16:11:50.269Z,21.90
2018-02-13T16:14:17.799Z,14.53
2018-02-13T16:16:45.351Z,12.87
2018-02-13T16:19:13.902Z,12.37
2018-02-13T16:21:42.222Z,11.60
2018-02-13T16:24:10.697Z,14.67
2018-02-13T16:26:38.241Z,12.37
2018-02-13T16:29:06.339Z,11.27
2018-02-13T16:31:34.004Z,13.53
2018-02-13T16:34:01.677Z,13.40
2018-02-13T16:36:29.232Z,13.83
2018-02-13T16:38:57.033Z,11.73
2018-02-13T16:41:24.556Z,13.93
2018-02-13T16:43:52.388Z,11.73
2018-02-13T16:46:20.605Z,14.93
2018-02-13T16:48:48.866Z,19.40
2018-02-13T16:51:16.651Z,16.77
2018-02-13T16:53:44.261Z,12.67
2018-02-13T16:56:11.981Z,12.10
2018-02-13T16:58:39.579Z,17.60
2018-02-13T17:01:07.156Z,18.57
2018-02-13T17:03:34.711Z,14.93
2018-02-13T17:06:02.984Z,15.97
2018-02-13T17:08:31.304Z,16.90
2018-02-13T17:10:58.899Z,16.77
2018-02-13T17:13:26.458Z,16.33
2018-02-13T17:15:54.154Z,18.17
2018-02-13T17:18:21.677Z,19.33
2018-02-13T17:20:49.972Z,16.67
2018-02-13T17:23:18.294Z,17.90
2018-02-13T17:25:45.820Z,16.50
2018-02-13T17:28:13.363Z,16.57
2018-02-13T17:30:40.893Z,17.10
2018-02-13T17:33:08.471Z,17.90
2018-02-13T17:35:36.152Z,13.87
2018-02-13T17:38:04.496Z,17.93
2018-02-13T17:40:32.063Z,16.47
2018-02-13T17:42:59.832Z,16.07
2018-02-13T17:45:28.985Z,20.63
2018-02-13T17:47:56.759Z,15.93
2018-02-13T17:50:24.353Z,18.83
2018-02-13T17:52:51.905Z,21.27
2018-02-13T17:55:19.594Z,16.07
2018-02-13T17:57:47.128Z,19.00
2018-02-13T18:00:14.688Z,18.60
2018-02-13T18:02:42.217Z,16.70
2018-02-13T18:05:10.522Z,16.93
2018-02-13T18:07:38.255Z,17.70
2018-02-13T18:10:05.824Z,16.87
2018-02-13T18:12:33.359Z,16.43
2018-02-13T18:15:00.894Z,17.13
2018-02-13T18:17:28.429Z,20.53
2018-02-13T18:19:56.251Z,19.03
2018-02-13T18:22:23.869Z,17.37
2018-02-13T18:24:51.439Z,18.60
2018-02-13T18:27:18.997Z,23.57
2018-02-13T18:29:46.524Z,20.43
2018-02-13T18:32:14.371Z,16.53
2018-02-13T18:34:42.328Z,19.13
2018-02-13T18:37:09.847Z,18.97
2018-02-13T18:39:37.375Z,18.23
2018-02-13T18:42:05.126Z,20.03
2018-02-13T18:44:32.676Z,22.10
2018-02-13T18:47:00.199Z,21.60
2018-02-13T18:49:28.612Z,20.63
2018-02-13T18:51:56.480Z,18.33
2018-02-13T18:54:24.061Z,15.80
2018-02-13T18:56:52.317Z,18.37
2018-02-13T18:59:19.830Z,14.03
2018-02-13T19:01:48.151Z,18.63
2018-02-13T19:04:15.814Z,17.83
2018-02-13T19:06:43.341Z,15.73
2018-02-13T19:09:11.651Z,16.20
2018-02-13T19:11:39.197Z,19.30
2018-02-13T19:14:07.550Z,19.30
2018-02-13T19:16:35.889Z,17.13
2018-02-13T19:19:03.588Z,20.23
2018-02-13T19:21:31.120Z,17.80
2018-02-13T19:23:58.636Z,19.83
2018-02-13T19:26:26.196Z,20.50
2018-02-13T19:28:53.727Z,19.80
2018-02-13T19:31:21.396Z,19.23
2018-02-13T19:33:52.602Z,20.03
2018-02-13T19:36:20.556Z,21.73
2018-02-13T19:38:48.185Z,19.37
2018-02-13T19:41:16.605Z,22.97
2018-02-13T19:43:44.202Z,20.33
2018-02-13T19:46:12.119Z,21.97
2018-02-13T19:48:39.743Z,23.87
2018-02-13T19:51:07.521Z,20.73
2018-02-13T19:53:35.375Z,22.80
2018-02-13T19:56:03.351Z,23.63
2018-02-13T19:58:30.907Z,21.70
2018-02-13T20:00:58.495Z,23.67
2018-02-13T20:03:26.267Z,23.80
2018-02-13T20:05:53.790Z,23.00
2018-02-13T20:08:21.378Z,22.20
2018-02-13T20:10:48.884Z,21.43
2018-02-13T20:13:16.442Z,23.53
2018-02-13T20:15:44.005Z,24.67
2018-02-13T20:18:11.673Z,22.13
2018-02-13T20:20:39.548Z,22.80
2018-02-13T20:23:07.104Z,21.17
2018-02-13T20:25:35.033Z,20.63
2018-02-13T20:28:03.976Z,25.53
2018-02-13T20:30:32.420Z,28.83
2018-02-13T20:33:00.457Z,25.30
2018-02-13T20:35:28.055Z,21.23
2018-02-13T20:37:55.898Z,23.30
2018-02-13T20:40:23.569Z,22.27
2018-02-13T20:42:52.105Z,21.40
2018-02-13T20:45:20.825Z,23.40
2018-02-13T20:47:48.388Z,23.10
2018-02-13T20:50:16.889Z,21.83
2018-02-13T20:52:44.437Z,18.97
2018-02-13T20:55:12.021Z,20.10
2018-02-13T20:57:39.662Z,20.80
2018-02-13T21:00:07.443Z,18.93
2018-02-13T21:02:35.861Z,21.23
2018-02-13T21:05:03.602Z,45.70
2018-02-13T21:07:31.749Z,20.27
2018-02-13T21:10:00.143Z,24.40
2018-02-13T21:12:28.097Z,20.80
2018-02-13T21:14:55.639Z,22.10
2018-02-13T21:17:23.192Z,29.10
2018-02-13T21:19:50.713Z,20.47
2018-02-13T21:22:19.162Z,25.60
2018-02-13T21:24:46.719Z,23.77
2018-02-13T21:27:14.515Z,21.50
2018-02-13T21:29:42.129Z,22.40
2018-02-13T21:32:10.129Z,23.20
2018-02-13T21:34:37.877Z,22.87
2018-02-13T21:37:05.491Z,21.83
2018-02-13T21:39:33.175Z,20.37
2018-02-13T21:42:00.846Z,21.27
2018-02-13T21:44:28.464Z,22.33
2018-02-13T21:46:56.153Z,22.67
2018-02-13T21:49:24.659Z,20.47
2018-02-13T21:51:52.247Z,20.40
2018-02-13T21:54:21.381Z,18.77
2018-02-13T21:56:49.838Z,21.70
2018-02-13T21:59:17.903Z,24.13
2018-02-13T22:01:45.595Z,22.40
2018-02-13T22:04:13.722Z,20.63
2018-02-13T22:06:41.348Z,17.87
2018-02-13T22:09:09.644Z,18.97
2018-02-13T22:11:37.151Z,21.60
2018-02-13T22:14:05.409Z,20.03
2018-02-13T22:16:33.705Z,21.70
2018-02-13T22:19:02.135Z,21.20
2018-02-13T22:21:29.690Z,19.73
2018-02-13T22:23:57.230Z,22.43
2018-02-13T22:26:25.401Z,18.57
2018-02-13T22:28:52.993Z,23.50
2018-02-13T22:31:20.614Z,20.07
2018-02-13T22:33:48.209Z,19.83
2018-02-13T22:36:15.782Z,21.67
2018-02-13T22:38:43.396Z,20.30
2018-02-13T22:41:11.913Z,21.47
2018-02-13T22:43:39.460Z,20.20
2018-02-13T22:46:07.219Z,22.17
2018-02-13T22:48:34.735Z,19.50
2018-02-13T22:51:02.263Z,25.07
2018-02-13T22:53:29.786Z,23.80
2018-02-13T22:55:57.313Z,22.57
2018-02-13T22:58:25.353Z,17.63
2018-02-13T23:00:52.863Z,20.13
2018-02-13T23:03:20.384Z,20.17
2018-02-13T23:05:47.913Z,19.30
2018-02-13T23:08:17.074Z,19.03
2018-02-13T23:10:44.624Z,18.80
2018-02-13T23:13:12.328Z,21.40
2018-02-13T23:15:40.024Z,18.77
2018-02-13T23:18:07.545Z,18.67
2018-02-13T23:20:35.826Z,19.53
2018-02-13T23:23:03.319Z,20.67
2018-02-13T23:25:30.977Z,19.47
2018-02-13T23:27:58.537Z,19.40
2018-02-13T23:30:26.406Z,21.37
2018-02-13T23:32:54.171Z,23.40
2018-02-13T23:35:21.668Z,22.47
2018-02-13T23:37:49.274Z,19.27
2018-02-13T23:40:17.973Z,21.73
2018-02-13T23:42:45.533Z,22.40
2018-02-13T23:45:13.072Z,18.47
2018-02-13T23:47:40.597Z,23.60
2018-02-13T23:50:08.141Z,19.77
2018-02-13T23:52:36.002Z,20.27
2018-02-13T23:55:04.478Z,20.57
2018-02-13T23:57:32.012Z,24.20
2018-02-13T23:59:59.584Z,21.90
